createdAt,value
2022-08-25T00:03:06.544Z,18.33
2022-08-25T00:08:09.745Z,18.17
2022-08-25T00:13:12.727Z,18.26
2022-08-25T00:18:19.676Z,18.36
2022-08-25T00:23:23.285Z,18.33
2022-08-25T00:28:26.226Z,18.29
2022-08-25T00:33:31.285Z,18.30
2022-08-25T00:38:34.322Z,18.33
2022-08-25T00:43:47.710Z,18.31
2022-08-25T00:49:06.950Z,18.29
2022-08-25T00:54:20.538Z,18.24
2022-08-25T00:59:25.102Z,18.13
2022-08-25T01:04:27.737Z,17.93
2022-08-25T01:09:32.711Z,17.99
2022-08-25T01:14:37.150Z,17.97
2022-08-25T01:19:40.051Z,17.96
2022-08-25T01:24:56.937Z,17.91
2022-08-25T01:29:59.604Z,17.90
2022-08-25T01:35:02.247Z,17.92
2022-08-25T01:40:06.861Z,17.94
2022-08-25T01:45:10.634Z,17.86
2022-08-25T01:50:13.497Z,17.95
2022-08-25T01:55:16.380Z,17.92
2022-08-25T02:00:21.044Z,17.93
2022-08-25T02:05:24.014Z,17.96
2022-08-25T02:10:26.754Z,17.91
2022-08-25T02:15:29.508Z,17.91
2022-08-25T02:20:32.209Z,18.01
2022-08-25T02:25:35.084Z,18.13
2022-08-25T02:30:39.702Z,18.08
2022-08-25T02:35:42.364Z,18.14
2022-08-25T02:40:45.037Z,18.32
2022-08-25T02:45:47.868Z,18.70
2022-08-25T02:50:52.971Z,18.88
2022-08-25T02:55:56.256Z,19.03
2022-08-25T03:00:59.022Z,18.97
2022-08-25T03:06:01.805Z,19.37
2022-08-25T03:11:05.616Z,19.61
2022-08-25T03:16:11.182Z,20.06
2022-08-25T03:21:16.232Z,20.53
2022-08-25T03:26:37.649Z,20.95
2022-08-25T03:31:40.341Z,21.48
2022-08-25T03:36:44.887Z,21.76
2022-08-25T03:41:47.658Z,21.66
2022-08-25T03:46:52.520Z,21.81
2022-08-25T03:51:55.261Z,22.12
2022-08-25T03:56:58.182Z,22.53
2022-08-25T04:02:01.918Z,22.55
2022-08-25T04:07:04.779Z,22.49
2022-08-25T04:12:10.504Z,22.58
2022-08-25T04:17:13.256Z,22.83
2022-08-25T04:22:15.884Z,23.02
2022-08-25T04:27:19.132Z,23.05
2022-08-25T04:32:21.848Z,23.25
2022-08-25T04:37:24.562Z,23.42
2022-08-25T04:42:27.490Z,23.61
2022-08-25T04:47:30.160Z,23.84
2022-08-25T04:52:33.549Z,24.21
2022-08-25T04:57:36.368Z,24.46
2022-08-25T05:02:39.084Z,24.60
2022-08-25T05:07:43.176Z,25.06
2022-08-25T05:12:46.154Z,25.22
2022-08-25T05:17:52.626Z,25.51
2022-08-25T05:22:59.222Z,25.73
2022-08-25T05:28:02.180Z,25.95
2022-08-25T05:33:05.321Z,26.00
2022-08-25T05:38:08.150Z,26.19
2022-08-25T05:43:18.342Z,26.52
2022-08-25T05:48:21.193Z,26.52
2022-08-25T05:53:25.342Z,26.93
2022-08-25T05:58:29.476Z,26.97
2022-08-25T06:03:32.228Z,27.16
2022-08-25T06:08:34.941Z,27.36
2022-08-25T06:13:39.354Z,27.50
2022-08-25T06:18:42.059Z,27.63
2022-08-25T06:23:44.770Z,27.83
2022-08-25T06:28:47.509Z,27.96
2022-08-25T06:33:50.980Z,28.23
2022-08-25T06:38:53.931Z,28.33
2022-08-25T06:44:04.953Z,28.67
2022-08-25T06:49:08.372Z,28.92
2022-08-25T06:54:11.109Z,29.06
2022-08-25T06:59:14.042Z,29.22
2022-08-25T07:04:16.703Z,29.26
2022-08-25T07:09:19.881Z,29.35
2022-08-25T07:14:23.172Z,29.66
2022-08-25T07:19:26.345Z,29.86
2022-08-25T07:24:28.957Z,29.79
2022-08-25T07:29:34.118Z,29.86
2022-08-25T07:34:55.372Z,30.06
2022-08-25T07:40:02.032Z,30.29
2022-08-25T07:45:08.337Z,30.18
2022-08-25T07:50:13.372Z,30.50
2022-08-25T07:55:17.848Z,30.63
2022-08-25T08:00:21.724Z,30.24
2022-08-25T08:05:26.478Z,30.50
2022-08-25T08:10:47.921Z,30.66
2022-08-25T08:15:53.564Z,30.78
2022-08-25T08:20:56.789Z,30.95
2022-08-25T08:25:59.440Z,31.03
2022-08-25T08:31:03.003Z,31.11
2022-08-25T08:36:11.139Z,31.17
2022-08-25T08:47:44.581Z,31.36
2022-08-25T08:52:50.135Z,31.51
2022-08-25T08:57:56.035Z,31.57
2022-08-25T09:03:13.024Z,31.61
2022-08-25T09:08:20.351Z,31.79
2022-08-25T09:13:39.807Z,31.86
2022-08-25T09:19:21.117Z,32.03
2022-08-25T09:24:36.200Z,32.29
2022-08-25T09:30:00.403Z,32.03
2022-08-25T09:35:04.989Z,31.95
2022-08-25T09:40:08.542Z,31.96
2022-08-25T09:45:13.727Z,32.31
2022-08-25T09:50:20.096Z,32.54
2022-08-25T09:55:34.458Z,32.26
2022-08-25T10:00:38.292Z,32.22
2022-08-25T10:05:58.933Z,32.42
2022-08-25T10:11:08.734Z,32.69
2022-08-25T10:16:17.682Z,32.23
2022-08-25T10:21:27.730Z,32.22
2022-08-25T10:26:48.241Z,32.56
2022-08-25T10:32:12.284Z,32.87
2022-08-25T10:37:33.295Z,32.99
2022-08-25T10:42:57.423Z,33.03
2022-08-25T10:48:18.238Z,32.68
2022-08-25T10:53:29.425Z,33.00
2022-08-25T10:58:59.893Z,33.22
2022-08-25T11:04:13.874Z,33.25
2022-08-25T11:09:23.871Z,33.06
2022-08-25T11:15:13.794Z,32.81
2022-08-25T11:20:26.838Z,32.96
2022-08-25T11:25:35.777Z,32.93
2022-08-25T11:30:40.474Z,33.13
2022-08-25T11:36:00.600Z,32.56
2022-08-25T11:41:35.056Z,32.82
2022-08-25T11:46:52.950Z,33.27
2022-08-25T11:51:55.699Z,33.04
2022-08-25T11:57:09.000Z,32.57
2022-08-25T12:02:34.511Z,32.40
2022-08-25T12:08:24.401Z,32.36
2022-08-25T12:13:42.664Z,32.93
2022-08-25T12:18:46.458Z,33.21
2022-08-25T12:24:10.996Z,33.23
2022-08-25T12:29:22.473Z,33.29
2022-08-25T12:35:01.666Z,33.28
2022-08-25T12:40:06.912Z,33.11
2022-08-25T12:45:35.427Z,32.93
2022-08-25T12:50:48.303Z,32.86
2022-08-25T12:55:57.981Z,33.07
2022-08-25T13:01:35.768Z,32.93
2022-08-25T13:07:02.559Z,32.84
2022-08-25T13:12:31.533Z,32.50
2022-08-25T13:17:36.359Z,32.41
2022-08-25T13:22:55.246Z,32.53
2022-08-25T13:28:04.555Z,32.52
2022-08-25T13:33:23.124Z,32.41
2022-08-25T13:38:27.180Z,32.08
2022-08-25T13:43:31.726Z,32.03
2022-08-25T13:48:37.240Z,31.86
2022-08-25T13:53:41.310Z,31.55
2022-08-25T13:58:45.627Z,31.34
2022-08-25T14:03:49.161Z,31.10
2022-08-25T14:08:58.099Z,31.18
2022-08-25T14:14:09.554Z,31.16
2022-08-25T14:19:19.894Z,31.03
2022-08-25T14:24:23.714Z,30.69
2022-08-25T14:29:26.897Z,30.67
2022-08-25T14:34:34.977Z,30.49
2022-08-25T14:39:37.774Z,30.34
2022-08-25T14:44:40.972Z,30.30
2022-08-25T14:49:45.915Z,30.12
2022-08-25T14:54:48.608Z,30.15
2022-08-25T14:59:51.976Z,30.04
2022-08-25T15:04:58.937Z,29.94
2022-08-25T15:10:02.009Z,29.70
2022-08-25T15:15:06.784Z,29.63
2022-08-25T15:20:11.117Z,29.50
2022-08-25T15:25:14.700Z,29.22
2022-08-25T15:30:17.509Z,29.15
2022-08-25T15:35:21.837Z,28.99
2022-08-25T15:40:31.969Z,28.81
2022-08-25T15:45:36.397Z,28.56
2022-08-25T15:50:39.389Z,28.23
2022-08-25T15:55:42.061Z,28.20
2022-08-25T16:00:46.341Z,27.97
2022-08-25T16:05:59.080Z,27.76
2022-08-25T16:11:01.864Z,27.50
2022-08-25T16:16:04.889Z,27.26
2022-08-25T16:21:14.427Z,26.97
2022-08-25T16:26:17.020Z,26.60
2022-08-25T16:31:20.851Z,26.35
2022-08-25T16:36:27.138Z,26.11
2022-08-25T16:41:35.714Z,25.88
2022-08-25T16:46:40.749Z,25.64
2022-08-25T16:51:43.746Z,25.37
2022-08-25T16:56:46.834Z,25.18
2022-08-25T17:01:54.547Z,24.95
2022-08-25T17:06:57.351Z,24.84
2022-08-25T17:12:00.800Z,24.70
2022-08-25T17:17:04.076Z,24.63
2022-08-25T17:22:14.229Z,24.37
2022-08-25T17:27:18.601Z,24.11
2022-08-25T17:32:21.610Z,24.03
2022-08-25T17:37:31.834Z,23.86
2022-08-25T17:42:34.546Z,23.87
2022-08-25T17:47:37.219Z,23.69
2022-08-25T17:52:39.983Z,23.59
2022-08-25T17:57:43.314Z,23.50
2022-08-25T18:02:47.023Z,23.28
2022-08-25T18:07:50.277Z,23.45
2022-08-25T18:12:54.201Z,23.35
2022-08-25T18:17:57.268Z,23.16
2022-08-25T18:23:00.739Z,23.09
2022-08-25T18:28:04.365Z,22.98
2022-08-25T18:33:07.468Z,22.63
2022-08-25T18:38:29.141Z,22.45
2022-08-25T18:43:33.900Z,22.18
2022-08-25T18:48:37.382Z,22.24
2022-08-25T18:53:50.473Z,22.17
2022-08-25T18:58:53.797Z,22.04
2022-08-25T19:03:57.014Z,22.01
2022-08-25T19:09:00.117Z,21.92
2022-08-25T19:14:03.389Z,21.87
2022-08-25T19:19:15.549Z,21.74
2022-08-25T19:24:19.318Z,21.86
2022-08-25T19:29:23.148Z,21.62
2022-08-25T19:34:31.312Z,21.60
2022-08-25T19:39:36.199Z,21.57
2022-08-25T19:44:42.219Z,21.47
2022-08-25T19:49:46.324Z,21.39
2022-08-25T19:54:50.048Z,21.26
2022-08-25T19:59:55.084Z,21.26
2022-08-25T20:05:02.538Z,21.43
2022-08-25T20:10:09.848Z,21.40
2022-08-25T20:15:16.926Z,21.27
2022-08-25T20:20:22.497Z,21.29
2022-08-25T20:25:26.701Z,21.14
2022-08-25T20:30:39.918Z,21.03
2022-08-25T20:35:47.251Z,20.99
2022-08-25T20:40:50.087Z,21.10
2022-08-25T20:46:00.783Z,21.20
2022-08-25T20:51:09.060Z,21.10
2022-08-25T20:56:15.161Z,21.09
2022-08-25T21:01:37.593Z,21.05
2022-08-25T21:06:41.028Z,20.87
2022-08-25T21:11:45.174Z,20.70
2022-08-25T21:16:50.880Z,20.51
2022-08-25T21:21:54.564Z,20.54
2022-08-25T21:27:04.671Z,20.52
2022-08-25T21:32:07.458Z,20.38
2022-08-25T21:37:10.165Z,20.38
2022-08-25T21:42:13.750Z,20.38
2022-08-25T21:47:21.131Z,20.40
2022-08-25T21:52:24.846Z,20.33
2022-08-25T21:57:27.712Z,20.24
2022-08-25T22:02:30.656Z,19.98
2022-08-25T22:07:34.767Z,20.26
2022-08-25T22:12:43.018Z,20.06
2022-08-25T22:17:48.165Z,20.07
2022-08-25T22:22:50.981Z,20.02
2022-08-25T22:27:56.697Z,19.78
2022-08-25T22:32:59.944Z,19.60
2022-08-25T22:38:03.430Z,19.46
2022-08-25T22:43:09.106Z,19.32
2022-08-25T22:48:13.626Z,19.41
2022-08-25T22:53:16.212Z,19.20
2022-08-25T22:58:18.989Z,19.06
2022-08-25T23:03:21.818Z,19.11
2022-08-25T23:08:38.949Z,18.81
2022-08-25T23:13:43.602Z,18.92
2022-08-25T23:18:46.964Z,18.84
2022-08-25T23:23:49.646Z,18.88
2022-08-25T23:28:52.599Z,18.93
2022-08-25T23:33:57.765Z,18.96
2022-08-25T23:39:00.913Z,18.99
2022-08-25T23:44:05.452Z,18.90
2022-08-25T23:49:08.842Z,19.03
2022-08-25T23:54:12.332Z,18.93
2022-08-25T23:59:15.678Z,18.94
